This is the latest recevied weather packets stored in our database for station/object NO9B. If no packets are shown the sender has not sent any weather packets the latest 1 day(s).
| Time | Temp. | Humidity | Pressure | Rain* | Wind** | Luminosity | Snow |
|---|---|---|---|---|---|---|---|
| 1777991526 | 10.56° C | 40% | 1009 hPa | 0 mm | 2.24 m/s, 217° | 29 W/m² | - |
| 1777991223 | 10° C | 41% | 1009 hPa | 0 mm | 2.68 m/s, 253° | 27 W/m² | - |
| 1777990920 | 10° C | 39% | 1009 hPa | 0 mm | 2.68 m/s, 284° | 27 W/m² | - |
| 1777990618 | 10.56° C | 40% | 1009.1 hPa | 0 mm | 2.24 m/s, 211° | 26 W/m² | - |
| 1777990315 | 10° C | 38% | 1009.1 hPa | 0 mm | 2.24 m/s, 229° | 26 W/m² | - |
| 1777990011 | 10° C | 40% | 1009.4 hPa | 0 mm | 1.34 m/s, 248° | 25 W/m² | - |
| 1777989708 | 10° C | 40% | 1009.4 hPa | 0 mm | 2.24 m/s, 233° | 25 W/m² | - |
| 1777989404 | 10° C | 40% | 1009.3 hPa | 0 mm | 4.02 m/s, 202° | 26 W/m² | - |
| 1777989101 | 10° C | 40% | 1009.4 hPa | 0 mm | 3.13 m/s, 215° | 31 W/m² | - |
| 1777988796 | 10° C | 41% | 1009.2 hPa | 0 mm | 1.79 m/s, 300° | 65 W/m² | - |
| 1777988494 | 10° C | 40% | 1009.2 hPa | 0 mm | 2.24 m/s, 249° | 32 W/m² | - |
| 1777988191 | 10° C | 40% | 1009.1 hPa | 0 mm | 0.89 m/s, 250° | 46 W/m² | - |
| 1777987887 | 10° C | 39% | 1009.1 hPa | 0 mm | 2.24 m/s, 200° | 40 W/m² | - |
| 1777987583 | 10° C | 38% | 1009.1 hPa | 0 mm | 0.89 m/s, 166° | 43 W/m² | - |
| 1777987281 | 10° C | 39% | 1008.9 hPa | 0 mm | 1.34 m/s, 290° | 54 W/m² | - |
| 1777986978 | 9.44° C | 41% | 1009 hPa | 0 mm | 0.89 m/s, 208° | 53 W/m² | - |
| 1777986676 | 9.44° C | 42% | 1009 hPa | 0 mm | 2.68 m/s, 214° | 38 W/m² | - |
| 1777986373 | 8.89° C | 44% | 1009.1 hPa | 0 mm | 0.89 m/s, 274° | 42 W/m² | - |
| 1777986072 | 8.89° C | 44% | 1009 hPa | 0 mm | 0.89 m/s, 292° | 47 W/m² | - |
| 1777985768 | 8.89° C | 45% | 1008.6 hPa | 0 mm | 1.34 m/s, 262° | 39 W/m² | - |
| 1777985465 | 8.33° C | 43% | 1008.9 hPa | 0 mm | 1.34 m/s, 239° | 38 W/m² | - |
| 1777985161 | 8.33° C | 45% | 1009.4 hPa | 0 mm | 1.34 m/s, 251° | 51 W/m² | - |
| 1777984857 | 8.33° C | 44% | 1009.3 hPa | 0 mm | 1.79 m/s, 252° | 38 W/m² | - |
| 1777984554 | 8.33° C | 44% | 1009 hPa | 0 mm | 1.79 m/s, 256° | 42 W/m² | - |
| 1777984250 | 8.33° C | 45% | 1008.7 hPa | 0 mm | 1.79 m/s, 210° | 52 W/m² | - |
* Rain latest hour (hover to see other rain measurements)
** Current wind speed in m/s (hover to see current wind gust speed)